createdAt,value
2022-09-26T00:01:45.839Z,5.35
2022-09-26T00:04:18.393Z,5.43
2022-09-26T00:09:15.849Z,6.20
2022-09-26T00:11:45.015Z,5.20
2022-09-26T00:14:15.831Z,5.25
2022-09-26T00:16:43.035Z,4.80
2022-09-26T00:19:10.281Z,5.10
2022-09-26T00:21:37.467Z,5.63
2022-09-26T00:24:05.424Z,5.40
2022-09-26T00:26:34.062Z,6.45
2022-09-26T00:29:06.468Z,6.05
2022-09-26T00:31:35.380Z,5.40
2022-09-26T00:34:03.153Z,5.32
2022-09-26T00:36:38.101Z,5.55
2022-09-26T00:39:07.368Z,5.63
2022-09-26T00:41:35.852Z,7.00
2022-09-26T00:44:44.527Z,4.70
2022-09-26T00:47:36.020Z,5.50
2022-09-26T00:50:06.895Z,4.80
2022-09-26T00:52:38.265Z,5.40
2022-09-26T00:55:08.456Z,5.85
2022-09-26T00:57:41.536Z,4.80
2022-09-26T01:00:11.636Z,4.88
2022-09-26T01:02:39.107Z,5.03
2022-09-26T01:05:08.330Z,5.18
2022-09-26T01:07:35.506Z,4.95
2022-09-26T01:10:04.187Z,5.43
2022-09-26T01:12:31.815Z,5.07
2022-09-26T01:14:59.061Z,4.85
2022-09-26T01:17:27.996Z,3.97
2022-09-26T01:20:09.885Z,5.07
2022-09-26T01:23:10.559Z,5.18
2022-09-26T01:26:16.515Z,4.88
2022-09-26T01:29:05.430Z,5.10
2022-09-26T01:31:46.038Z,4.35
2022-09-26T01:34:18.440Z,4.07
2022-09-26T01:36:59.459Z,3.83
2022-09-26T01:39:34.620Z,4.47
2022-09-26T01:42:13.053Z,4.57
2022-09-26T01:44:47.652Z,5.53
2022-09-26T01:47:21.796Z,4.05
2022-09-26T01:52:32.286Z,4.43
2022-09-26T01:55:08.081Z,4.03
2022-09-26T01:57:39.858Z,4.50
2022-09-26T02:00:08.937Z,5.15
2022-09-26T02:02:41.677Z,5.68
2022-09-26T02:05:14.621Z,4.40
2022-09-26T02:07:45.911Z,4.45
2022-09-26T02:10:18.258Z,3.95
2022-09-26T02:12:50.085Z,4.25
2022-09-26T02:15:20.049Z,4.22
2022-09-26T02:17:52.088Z,3.78
2022-09-26T02:20:25.100Z,5.22
2022-09-26T02:22:52.530Z,3.92
2022-09-26T02:25:19.731Z,4.05
2022-09-26T02:27:48.545Z,4.22
2022-09-26T02:30:16.032Z,5.13
2022-09-26T02:32:43.163Z,3.60
2022-09-26T02:35:12.035Z,4.18
2022-09-26T02:37:39.240Z,4.07
2022-09-26T02:40:07.548Z,4.60
2022-09-26T02:42:43.952Z,3.95
2022-09-26T02:45:22.929Z,4.07
2022-09-26T02:48:16.794Z,3.78
2022-09-26T02:51:02.245Z,4.32
2022-09-26T02:53:48.934Z,4.38
2022-09-26T02:56:24.257Z,4.40
2022-09-26T02:58:57.123Z,4.05
2022-09-26T03:01:31.345Z,3.25
2022-09-26T03:04:04.669Z,3.95
2022-09-26T03:06:39.376Z,3.67
2022-09-26T03:09:08.479Z,3.80
2022-09-26T03:11:36.536Z,3.72
2022-09-26T03:14:04.123Z,3.58
2022-09-26T03:16:36.569Z,4.07
2022-09-26T03:19:09.143Z,4.32
2022-09-26T03:21:37.808Z,3.65
2022-09-26T03:24:05.237Z,3.25
2022-09-26T03:26:33.151Z,2.95
2022-09-26T03:29:00.661Z,3.45
2022-09-26T03:31:27.817Z,4.07
2022-09-26T03:33:54.944Z,2.97
2022-09-26T03:36:22.854Z,3.90
2022-09-26T03:38:51.525Z,3.05
2022-09-26T03:41:18.661Z,4.15
2022-09-26T03:43:45.759Z,4.55
2022-09-26T03:46:12.944Z,3.53
2022-09-26T03:48:40.190Z,4.05
2022-09-26T03:51:08.965Z,2.90
2022-09-26T03:53:37.796Z,3.60
2022-09-26T03:56:08.884Z,3.85
2022-09-26T03:58:36.693Z,3.40
2022-09-26T04:01:04.761Z,3.13
2022-09-26T04:03:35.066Z,3.83
2022-09-26T04:06:02.260Z,3.75
2022-09-26T04:08:29.459Z,3.15
2022-09-26T04:11:01.771Z,5.85
2022-09-26T04:13:50.676Z,4.00
2022-09-26T04:16:18.933Z,5.30
2022-09-26T04:18:46.093Z,5.13
2022-09-26T04:21:13.622Z,4.93
2022-09-26T04:23:42.408Z,4.97
2022-09-26T04:26:11.610Z,4.10
2022-09-26T04:28:40.668Z,3.67
2022-09-26T04:31:09.125Z,4.35
2022-09-26T04:33:36.561Z,4.10
2022-09-26T04:36:05.906Z,5.35
2022-09-26T04:38:33.027Z,4.10
2022-09-26T04:41:04.477Z,3.38
2022-09-26T04:43:31.988Z,4.00
2022-09-26T04:46:00.971Z,4.78
2022-09-26T04:48:28.427Z,3.63
2022-09-26T04:50:55.568Z,3.88
2022-09-26T04:53:22.886Z,3.30
2022-09-26T04:55:50.300Z,2.92
2022-09-26T04:58:17.496Z,2.42
2022-09-26T05:00:45.699Z,2.67
2022-09-26T05:03:14.661Z,6.47
2022-09-26T05:05:42.601Z,4.43
2022-09-26T05:08:09.701Z,3.30
2022-09-26T05:10:36.777Z,2.38
2022-09-26T05:13:04.199Z,2.33
2022-09-26T05:15:31.569Z,3.30
2022-09-26T05:17:59.781Z,2.42
2022-09-26T05:20:28.406Z,2.33
2022-09-26T05:22:57.088Z,4.22
2022-09-26T05:25:24.416Z,4.30
2022-09-26T05:27:51.548Z,2.60
2022-09-26T05:30:18.649Z,2.75
2022-09-26T05:32:45.746Z,4.32
2022-09-26T05:35:12.849Z,2.13
2022-09-26T05:37:41.448Z,4.40
2022-09-26T05:40:10.176Z,2.75
2022-09-26T05:42:37.436Z,3.08
2022-09-26T05:45:05.596Z,2.33
2022-09-26T05:47:33.778Z,3.42
2022-09-26T05:50:00.853Z,1.90
2022-09-26T05:52:28.677Z,1.92
2022-09-26T05:54:57.092Z,2.80
2022-09-26T05:57:24.173Z,3.63
2022-09-26T05:59:51.277Z,2.70
2022-09-26T06:02:20.891Z,2.83
2022-09-26T06:04:48.283Z,3.25
2022-09-26T06:07:15.374Z,3.25
2022-09-26T06:09:42.451Z,2.85
2022-09-26T06:12:10.885Z,2.88
2022-09-26T06:14:37.980Z,1.83
2022-09-26T06:17:05.068Z,3.28
2022-09-26T06:19:32.154Z,2.55
2022-09-26T06:21:59.356Z,1.98
2022-09-26T06:24:26.451Z,2.00
2022-09-26T06:26:53.545Z,2.70
2022-09-26T06:29:21.964Z,2.40
2022-09-26T06:31:49.100Z,2.53
2022-09-26T06:34:16.381Z,2.90
2022-09-26T06:36:43.606Z,2.88
2022-09-26T06:39:10.677Z,2.10
2022-09-26T06:41:37.769Z,2.00
2022-09-26T06:44:04.861Z,3.28
2022-09-26T06:46:33.355Z,2.25
2022-09-26T06:49:00.453Z,2.58
2022-09-26T06:51:27.552Z,1.65
2022-09-26T06:53:54.676Z,3.55
2022-09-26T06:56:21.754Z,2.60
2022-09-26T06:58:48.858Z,3.00
2022-09-26T07:01:16.106Z,2.72
2022-09-26T07:03:46.127Z,2.60
2022-09-26T07:06:13.337Z,2.95
2022-09-26T07:11:38.147Z,2.53
2022-09-26T07:14:08.910Z,2.30
2022-09-26T07:16:36.071Z,3.25
2022-09-26T07:19:04.554Z,2.17
2022-09-26T07:21:31.672Z,3.28
2022-09-26T07:23:59.038Z,3.13
2022-09-26T07:26:26.138Z,3.35
2022-09-26T07:28:54.863Z,2.33
2022-09-26T07:31:22.441Z,2.47
2022-09-26T07:33:49.594Z,2.70
2022-09-26T07:36:18.028Z,2.53
2022-09-26T07:38:48.225Z,2.80
2022-09-26T07:41:15.618Z,2.40
2022-09-26T07:44:34.549Z,2.55
2022-09-26T07:46:29.977Z,2.47
2022-09-26T07:48:57.099Z,2.20
2022-09-26T07:51:25.532Z,3.25
2022-09-26T07:53:52.616Z,1.60
2022-09-26T07:56:19.699Z,3.17
2022-09-26T07:58:47.205Z,2.58
2022-09-26T08:01:16.885Z,2.60
2022-09-26T08:03:45.564Z,2.92
2022-09-26T08:06:12.664Z,2.75
2022-09-26T08:08:41.170Z,2.67
2022-09-26T08:11:13.249Z,2.35
2022-09-26T08:13:40.337Z,2.70
2022-09-26T08:16:08.052Z,2.17
2022-09-26T08:18:35.253Z,3.15
2022-09-26T08:21:03.298Z,1.90
2022-09-26T08:23:30.405Z,2.50
2022-09-26T08:25:58.871Z,2.80
2022-09-26T08:28:25.981Z,2.00
2022-09-26T08:30:53.269Z,2.20
2022-09-26T08:33:20.451Z,2.45
2022-09-26T08:35:47.560Z,2.00
2022-09-26T08:38:14.667Z,2.30
2022-09-26T08:40:52.004Z,3.25
2022-09-26T08:43:36.951Z,2.42
2022-09-26T08:46:13.768Z,3.25
2022-09-26T08:48:53.173Z,2.67
2022-09-26T08:51:29.374Z,2.45
2022-09-26T08:54:04.536Z,1.40
2022-09-26T08:56:36.504Z,2.53
2022-09-26T08:59:09.859Z,2.38
2022-09-26T09:01:41.635Z,2.30
2022-09-26T09:04:15.038Z,2.75
2022-09-26T09:06:42.878Z,1.80
2022-09-26T09:09:13.242Z,1.92
2022-09-26T09:11:56.586Z,1.85
2022-09-26T09:14:39.377Z,1.95
2022-09-26T09:17:17.502Z,1.92
2022-09-26T09:19:55.908Z,2.08
2022-09-26T09:22:41.675Z,2.72
2022-09-26T09:25:16.229Z,2.40
2022-09-26T09:27:56.614Z,3.22
2022-09-26T09:30:36.847Z,2.38
2022-09-26T09:33:12.061Z,1.73
2022-09-26T09:35:44.632Z,1.85
2022-09-26T09:38:16.319Z,1.92
2022-09-26T09:40:52.681Z,2.53
2022-09-26T09:43:28.563Z,2.47
2022-09-26T09:46:02.993Z,1.50
2022-09-26T09:48:30.217Z,1.75
2022-09-26T09:51:11.678Z,4.10
2022-09-26T09:53:59.322Z,1.48
2022-09-26T09:56:36.726Z,2.28
2022-09-26T09:59:18.538Z,2.58
2022-09-26T10:01:55.405Z,1.95
2022-09-26T10:04:34.582Z,1.58
2022-09-26T10:07:01.812Z,2.92
2022-09-26T10:09:39.908Z,2.03
2022-09-26T10:12:13.773Z,1.70
2022-09-26T10:14:47.940Z,3.70
2022-09-26T10:19:44.380Z,2.00
2022-09-26T10:22:17.380Z,1.48
2022-09-26T10:24:47.563Z,1.70
2022-09-26T10:27:16.971Z,2.63
2022-09-26T10:29:44.888Z,1.65
2022-09-26T10:32:12.394Z,2.83
2022-09-26T10:34:40.828Z,2.33
2022-09-26T10:37:23.217Z,2.13
2022-09-26T10:39:52.852Z,2.17
2022-09-26T10:42:22.349Z,2.15
2022-09-26T10:44:50.026Z,1.95
2022-09-26T10:47:19.071Z,3.47
2022-09-26T10:49:52.442Z,2.08
2022-09-26T10:52:22.446Z,1.37
2022-09-26T10:54:55.214Z,2.05
2022-09-26T10:57:26.730Z,2.53
2022-09-26T10:59:56.030Z,2.20
2022-09-26T11:02:26.455Z,2.40
2022-09-26T11:04:58.852Z,2.53
2022-09-26T11:07:30.199Z,1.02
2022-09-26T11:10:00.924Z,2.40
2022-09-26T11:12:30.500Z,1.80
2022-09-26T11:14:59.918Z,1.70
2022-09-26T11:17:45.071Z,1.80
2022-09-26T11:20:23.025Z,1.52
2022-09-26T11:22:56.178Z,1.52
2022-09-26T11:25:27.730Z,1.67
2022-09-26T11:28:00.594Z,2.30
2022-09-26T11:30:29.352Z,2.38
2022-09-26T11:32:58.589Z,1.92
2022-09-26T11:35:41.064Z,1.45
2022-09-26T11:38:17.332Z,1.98
2022-09-26T11:41:03.211Z,1.30
2022-09-26T11:43:53.111Z,1.92
2022-09-26T11:46:38.717Z,2.00
2022-09-26T11:49:29.139Z,1.50
2022-09-26T11:52:12.712Z,2.22
2022-09-26T11:54:56.361Z,2.97
2022-09-26T11:57:36.579Z,1.50
2022-09-26T12:00:14.968Z,1.60
2022-09-26T12:03:17.399Z,1.85
2022-09-26T12:05:52.389Z,1.50
2022-09-26T12:08:35.633Z,2.00
2022-09-26T12:11:14.230Z,1.85
2022-09-26T12:13:49.911Z,2.28
2022-09-26T12:16:24.665Z,1.67
2022-09-26T12:18:59.916Z,1.52
2022-09-26T12:21:38.719Z,1.90
2022-09-26T12:24:22.206Z,1.80
2022-09-26T12:26:57.784Z,2.30
2022-09-26T12:29:34.366Z,1.85
2022-09-26T12:32:16.311Z,1.75
2022-09-26T12:35:02.724Z,2.35
2022-09-26T12:37:59.552Z,1.75
2022-09-26T12:40:34.476Z,2.08
2022-09-26T12:43:24.880Z,2.22
2022-09-26T12:46:12.796Z,2.00
2022-09-26T12:48:57.725Z,1.38
2022-09-26T12:51:34.253Z,2.72
2022-09-26T12:54:37.301Z,2.05
2022-09-26T12:57:17.429Z,2.85
2022-09-26T13:00:11.689Z,1.98
2022-09-26T13:03:07.468Z,1.55
2022-09-26T13:06:25.280Z,1.63
2022-09-26T13:09:03.097Z,2.67
2022-09-26T13:11:43.993Z,1.30
2022-09-26T13:14:27.271Z,2.58
2022-09-26T13:17:05.139Z,1.52
2022-09-26T13:19:36.553Z,1.10
2022-09-26T13:22:12.301Z,1.08
2022-09-26T13:24:48.181Z,1.65
2022-09-26T13:27:20.133Z,1.42
2022-09-26T13:29:58.460Z,1.10
2022-09-26T13:32:31.075Z,1.70
2022-09-26T13:35:02.665Z,2.00
2022-09-26T13:37:41.782Z,1.98
2022-09-26T13:40:24.398Z,1.75
2022-09-26T13:43:03.114Z,2.30
2022-09-26T13:45:48.687Z,1.92
2022-09-26T13:48:23.820Z,2.75
2022-09-26T13:50:55.880Z,1.58
2022-09-26T13:53:31.391Z,1.95
2022-09-26T13:56:39.540Z,2.38
2022-09-26T13:59:37.280Z,1.15
2022-09-26T14:02:23.242Z,1.98
2022-09-26T14:04:51.528Z,2.05
2022-09-26T14:07:22.300Z,1.98
2022-09-26T14:09:55.699Z,1.75
2022-09-26T14:12:49.703Z,2.80
2022-09-26T14:15:21.884Z,1.95
2022-09-26T14:18:21.686Z,1.85
2022-09-26T14:21:04.526Z,1.58
2022-09-26T14:23:40.620Z,1.92
2022-09-26T14:26:13.078Z,1.70
2022-09-26T14:28:49.262Z,1.85
2022-09-26T14:31:40.967Z,1.40
2022-09-26T14:34:21.175Z,1.88
2022-09-26T14:36:51.992Z,1.50
2022-09-26T14:39:27.035Z,1.98
2022-09-26T14:41:55.763Z,1.60
2022-09-26T14:44:23.280Z,1.70
2022-09-26T14:46:53.138Z,2.38
2022-09-26T14:49:24.342Z,1.98
2022-09-26T14:51:58.384Z,3.88
2022-09-26T14:54:29.023Z,3.72
2022-09-26T14:57:02.591Z,1.92
2022-09-26T14:59:41.263Z,2.00
2022-09-26T15:02:33.556Z,1.48
2022-09-26T15:05:04.741Z,2.78
2022-09-26T15:07:36.109Z,1.58
2022-09-26T15:10:14.159Z,1.85
2022-09-26T15:12:44.507Z,2.97
2022-09-26T15:15:27.207Z,1.63
2022-09-26T15:17:56.720Z,3.58
2022-09-26T15:20:32.401Z,3.58
2022-09-26T15:23:02.468Z,3.58
2022-09-26T15:25:32.424Z,1.92
2022-09-26T15:28:01.092Z,3.30
2022-09-26T15:30:34.619Z,4.07
2022-09-26T15:33:02.084Z,2.20
2022-09-26T15:35:29.495Z,2.17
2022-09-26T15:37:58.789Z,3.75
2022-09-26T15:40:29.287Z,4.53
2022-09-26T15:43:06.210Z,3.03
2022-09-26T15:45:53.961Z,2.55
2022-09-26T15:48:30.318Z,2.13
2022-09-26T15:51:03.406Z,3.17
2022-09-26T15:53:36.473Z,2.00
2022-09-26T15:56:09.329Z,1.92
2022-09-26T15:58:42.479Z,1.92
2022-09-26T16:01:14.931Z,1.70
2022-09-26T16:03:47.295Z,3.30
2022-09-26T16:06:23.778Z,3.22
2022-09-26T16:08:53.885Z,3.17
2022-09-26T16:11:23.041Z,2.45
2022-09-26T16:13:51.793Z,2.50
2022-09-26T16:16:24.358Z,2.85
2022-09-26T16:18:54.714Z,3.25
2022-09-26T16:21:23.786Z,2.35
2022-09-26T16:23:52.650Z,2.83
2022-09-26T16:26:29.058Z,1.83
2022-09-26T16:28:56.189Z,2.22
2022-09-26T16:31:29.116Z,3.60
2022-09-26T16:33:58.555Z,3.28
2022-09-26T16:36:28.549Z,3.10
2022-09-26T16:38:58.499Z,2.80
2022-09-26T16:41:59.607Z,2.83
2022-09-26T16:44:26.508Z,2.55
2022-09-26T16:46:59.017Z,5.07
2022-09-26T16:49:32.372Z,2.58
2022-09-26T16:52:28.074Z,3.90
2022-09-26T16:54:56.619Z,3.25
2022-09-26T16:57:28.333Z,2.08
2022-09-26T16:59:59.515Z,3.15
2022-09-26T17:02:26.622Z,3.85
2022-09-26T17:04:53.845Z,2.75
2022-09-26T17:07:20.936Z,2.97
2022-09-26T17:09:48.015Z,2.38
2022-09-26T17:12:19.945Z,2.60
2022-09-26T17:14:51.359Z,3.78
2022-09-26T17:17:20.973Z,3.13
2022-09-26T17:19:49.941Z,2.83
2022-09-26T17:22:18.852Z,2.85
2022-09-26T17:24:47.268Z,4.03
2022-09-26T17:27:17.104Z,2.67
2022-09-26T17:29:46.223Z,2.83
2022-09-26T17:32:18.638Z,2.13
2022-09-26T17:34:45.786Z,4.85
2022-09-26T17:37:18.276Z,3.65
2022-09-26T17:39:45.454Z,2.03
2022-09-26T17:42:12.539Z,4.22
2022-09-26T17:44:39.627Z,2.50
2022-09-26T17:47:06.908Z,2.50
2022-09-26T17:49:38.290Z,2.63
2022-09-26T17:52:18.498Z,3.97
2022-09-26T17:54:47.233Z,3.30
2022-09-26T17:57:14.779Z,2.90
2022-09-26T17:59:42.031Z,4.88
2022-09-26T18:02:20.116Z,3.20
2022-09-26T18:04:48.921Z,3.67
2022-09-26T18:07:16.179Z,2.67
2022-09-26T18:09:43.667Z,2.38
2022-09-26T18:12:16.236Z,3.05
2022-09-26T18:14:43.376Z,2.92
2022-09-26T18:17:14.161Z,2.92
2022-09-26T18:19:41.704Z,2.90
2022-09-26T18:22:16.848Z,3.60
2022-09-26T18:24:46.869Z,3.40
2022-09-26T18:27:15.251Z,3.38
2022-09-26T18:29:44.678Z,3.10
2022-09-26T18:32:18.168Z,4.45
2022-09-26T18:34:45.226Z,3.85
2022-09-26T18:37:13.639Z,3.25
2022-09-26T18:39:41.093Z,3.42
2022-09-26T18:42:13.509Z,3.95
2022-09-26T18:44:40.795Z,3.00
2022-09-26T18:47:14.022Z,3.15
2022-09-26T18:49:41.452Z,2.97
2022-09-26T18:52:14.051Z,4.40
2022-09-26T18:54:41.925Z,3.10
2022-09-26T18:57:09.738Z,5.15
2022-09-26T18:59:36.835Z,2.97
2022-09-26T19:02:09.328Z,3.53
2022-09-26T19:04:36.523Z,2.40
2022-09-26T19:07:06.498Z,4.85
2022-09-26T19:09:35.997Z,3.15
2022-09-26T19:12:04.010Z,4.30
2022-09-26T19:14:31.470Z,2.85
2022-09-26T19:16:58.996Z,3.35
2022-09-26T19:19:26.851Z,2.88
2022-09-26T19:21:56.594Z,2.50
2022-09-26T19:24:37.128Z,2.97
2022-09-26T19:27:06.860Z,2.50
2022-09-26T19:29:38.344Z,2.10
2022-09-26T19:32:06.727Z,2.47
2022-09-26T19:34:34.008Z,3.05
2022-09-26T19:37:01.119Z,3.42
2022-09-26T19:39:28.195Z,3.10
2022-09-26T19:41:56.611Z,2.92
2022-09-26T19:44:23.707Z,2.30
2022-09-26T19:46:50.963Z,3.65
2022-09-26T19:49:18.826Z,3.58
2022-09-26T19:51:46.816Z,3.83
2022-09-26T19:54:16.652Z,4.43
2022-09-26T19:56:44.451Z,2.50
2022-09-26T19:59:13.520Z,4.93
2022-09-26T20:01:42.727Z,3.47
2022-09-26T20:04:14.279Z,2.65
2022-09-26T20:06:41.890Z,2.72
2022-09-26T20:09:14.419Z,2.60
2022-09-26T20:11:41.551Z,3.63
2022-09-26T20:14:08.655Z,3.38
2022-09-26T20:16:40.917Z,3.05
2022-09-26T20:19:16.074Z,4.85
2022-09-26T20:21:43.280Z,5.35
2022-09-26T20:24:15.193Z,2.25
2022-09-26T20:26:42.490Z,3.50
2022-09-26T20:29:13.179Z,2.97
2022-09-26T20:31:41.679Z,3.22
2022-09-26T20:34:09.159Z,3.45
2022-09-26T20:36:37.835Z,2.50
2022-09-26T20:39:09.463Z,3.08
2022-09-26T20:41:38.635Z,2.85
2022-09-26T20:44:09.059Z,2.03
2022-09-26T20:46:39.031Z,2.47
2022-09-26T20:49:12.696Z,3.25
2022-09-26T20:51:40.108Z,3.92
2022-09-26T20:54:18.970Z,2.90
2022-09-26T20:56:46.105Z,2.38
2022-09-26T20:59:13.188Z,3.03
2022-09-26T21:01:40.318Z,2.80
2022-09-26T21:04:14.176Z,2.92
2022-09-26T21:06:41.998Z,3.38
2022-09-26T21:09:14.543Z,1.95
2022-09-26T21:11:41.745Z,2.40
2022-09-26T21:14:08.936Z,2.42
2022-09-26T21:16:42.399Z,2.17
2022-09-26T21:19:18.407Z,2.35
2022-09-26T21:21:45.512Z,3.75
2022-09-26T21:24:16.535Z,1.92
2022-09-26T21:26:44.175Z,3.00
2022-09-26T21:29:14.408Z,5.28
2022-09-26T21:31:44.420Z,1.92
2022-09-26T21:34:19.502Z,2.97
2022-09-26T21:36:47.365Z,2.63
2022-09-26T21:39:17.001Z,3.15
2022-09-26T21:41:46.106Z,2.65
2022-09-26T21:44:19.730Z,2.85
2022-09-26T21:46:46.822Z,3.45
2022-09-26T21:49:15.419Z,2.95
2022-09-26T21:51:45.088Z,4.03
2022-09-26T21:54:17.375Z,2.28
2022-09-26T21:56:49.010Z,1.90
2022-09-26T21:59:18.956Z,2.53
2022-09-26T22:01:46.075Z,2.08
2022-09-26T22:04:13.204Z,4.18
2022-09-26T22:06:42.257Z,2.88
2022-09-26T22:09:09.534Z,1.73
2022-09-26T22:11:37.040Z,2.53
2022-09-26T22:14:04.639Z,2.60
2022-09-26T22:16:32.339Z,2.58
2022-09-26T22:18:59.891Z,3.08
2022-09-26T22:21:27.213Z,2.03
2022-09-26T22:23:55.662Z,2.85
2022-09-26T22:26:23.274Z,2.90
2022-09-26T22:28:50.389Z,2.45
2022-09-26T22:31:18.303Z,5.38
2022-09-26T22:33:45.492Z,2.40
2022-09-26T22:36:12.585Z,2.47
2022-09-26T22:38:39.708Z,2.72
2022-09-26T22:41:08.409Z,2.10
2022-09-26T22:43:35.545Z,2.33
2022-09-26T22:46:04.513Z,3.53
2022-09-26T22:48:32.731Z,2.58
2022-09-26T22:50:59.946Z,2.40
2022-09-26T22:53:27.658Z,2.75
2022-09-26T22:55:55.711Z,2.60
2022-09-26T22:58:25.732Z,2.85
2022-09-26T23:00:52.874Z,2.40
2022-09-26T23:03:20.000Z,2.50
2022-09-26T23:05:47.389Z,2.75
2022-09-26T23:08:14.484Z,3.25
2022-09-26T23:10:48.346Z,2.83
2022-09-26T23:13:15.484Z,1.70
2022-09-26T23:15:44.347Z,3.65
2022-09-26T23:18:12.191Z,2.88
2022-09-26T23:20:39.454Z,2.30
2022-09-26T23:23:07.145Z,2.60
2022-09-26T23:25:34.322Z,3.63
2022-09-26T23:28:02.005Z,3.60
2022-09-26T23:30:29.121Z,3.03
2022-09-26T23:32:57.779Z,4.00
2022-09-26T23:35:24.849Z,2.88
2022-09-26T23:37:51.935Z,2.35
2022-09-26T23:40:19.085Z,2.75
2022-09-26T23:42:46.232Z,2.80
2022-09-26T23:45:13.319Z,2.75
2022-09-26T23:47:40.429Z,3.15
2022-09-26T23:50:09.491Z,3.00
2022-09-26T23:52:36.558Z,2.13
2022-09-26T23:55:05.387Z,2.60
2022-09-26T23:57:32.464Z,4.07
2022-09-26T23:59:59.564Z,2.55
